Time;durP1;ratioP1;P1;durP2;ratioP2;P2;SDS_P1;SDS_P2;PMS_P1;PMS_P2;Temp;Humidity;BMP_temperature;BMP_pressure;BME280_temperature;BME280_humidity;BME280_pressure;Samples;Min_cycle;Max_cycle;Signal;HPM_P1;HPM_P2
2022/12/27 00:01:25;;;;;;;13.35;3.67;;;4.20;99.90;;;;;;5073972;28;20047;-71
2022/12/27 00:03:51;;;;;;;10.98;2.35;;;4.20;99.90;;;;;;5055659;28;20101;-72
2022/12/27 00:06:20;;;;;;;7.20;2.50;;;4.20;99.90;;;;;;5056174;28;20402;-72
2022/12/27 00:08:46;;;;;;;7.75;2.08;;;4.20;99.90;;;;;;5055792;28;20537;-72
2022/12/27 00:11:15;;;;;;;7.53;1.92;;;4.10;99.90;;;;;;5073860;28;20076;-71
2022/12/27 00:13:41;;;;;;;10.38;2.40;;;4.20;99.90;;;;;;5073214;28;20509;-71
2022/12/27 00:16:09;;;;;;;11.20;2.42;;;4.30;99.90;;;;;;5055702;28;20036;-71
2022/12/27 00:18:37;;;;;;;11.18;2.22;;;4.40;99.90;;;;;;5073823;28;20093;-71
2022/12/27 00:21:03;;;;;;;10.02;2.38;;;4.30;99.90;;;;;;5073829;28;20040;-71
2022/12/27 00:23:34;;;;;;;9.10;3.03;;;4.20;99.90;;;;;;5055348;28;20095;-72
2022/12/27 00:26:01;;;;;;;11.35;2.90;;;4.10;99.90;;;;;;5073489;28;20040;-72
2022/12/27 00:28:33;;;;;;;7.40;2.60;;;4.30;99.90;;;;;;5073392;28;20166;-71
2022/12/27 00:30:59;;;;;;;7.25;2.30;;;4.20;99.90;;;;;;5055767;28;20037;-71
2022/12/27 00:33:26;;;;;;;9.75;2.78;;;4.40;99.90;;;;;;5055394;28;20040;-71
2022/12/27 00:35:52;;;;;;;7.75;2.05;;;4.30;99.90;;;;;;5055276;28;20044;-71
2022/12/27 00:38:17;;;;;;;12.48;2.33;;;4.30;99.90;;;;;;5055411;28;20055;-71
2022/12/27 00:40:43;;;;;;;4.43;1.90;;;4.30;99.90;;;;;;5073285;28;20044;-71
2022/12/27 00:43:08;;;;;;;6.20;2.10;;;4.40;99.90;;;;;;5055124;28;20086;-72
2022/12/27 00:45:34;;;;;;;9.00;2.05;;;4.40;99.90;;;;;;5073182;28;20041;-72
2022/12/27 00:47:59;;;;;;;10.73;2.35;;;4.40;99.90;;;;;;5054126;28;20044;-71
2022/12/27 00:50:25;;;;;;;11.02;2.58;;;4.30;99.90;;;;;;5055332;28;20103;-72
2022/12/27 00:52:51;;;;;;;5.82;2.58;;;4.50;99.90;;;;;;5072735;28;20494;-72
2022/12/27 00:55:16;;;;;;;12.15;2.20;;;4.30;99.90;;;;;;5054923;28;20135;-71
2022/12/27 00:57:42;;;;;;;9.10;3.15;;;4.40;99.90;;;;;;5072818;28;20036;-71
2022/12/27 01:00:08;;;;;;;6.15;1.98;;;4.40;99.90;;;;;;5072683;28;20040;-71
2022/12/27 01:02:34;;;;;;;12.07;3.05;;;4.50;99.90;;;;;;5054810;28;20048;-71
2022/12/27 01:05:00;;;;;;;9.00;2.33;;;4.40;99.90;;;;;;5072900;28;20136;-71
2022/12/27 01:07:26;;;;;;;9.75;3.08;;;4.50;99.90;;;;;;5072761;28;20117;-71
2022/12/27 01:09:51;;;;;;;8.20;2.35;;;4.50;99.90;;;;;;5072709;28;20488;-71
2022/12/27 01:12:17;;;;;;;10.45;2.13;;;4.40;99.90;;;;;;5054453;28;20120;-71
2022/12/27 01:14:42;;;;;;;9.55;3.80;;;4.50;99.90;;;;;;5072248;28;20495;-71
2022/12/27 01:17:08;;;;;;;8.32;1.88;;;4.60;99.90;;;;;;5054948;28;20032;-71
2022/12/27 01:19:37;;;;;;;19.38;3.50;;;4.50;99.90;;;;;;5054446;28;20033;-72
2022/12/27 01:22:04;;;;;;;9.68;3.10;;;4.60;99.90;;;;;;5054423;28;20111;-72
2022/12/27 01:24:30;;;;;;;7.03;2.08;;;4.60;99.90;;;;;;5072124;28;20051;-72
2022/12/27 01:26:56;;;;;;;9.05;2.85;;;4.50;99.90;;;;;;5071633;28;20093;-72
2022/12/27 01:29:21;;;;;;;10.13;2.40;;;4.50;99.90;;;;;;5054324;28;20122;-72
2022/12/27 01:31:48;;;;;;;10.63;2.90;;;4.50;99.90;;;;;;5072221;28;20040;-72
2022/12/27 01:34:15;;;;;;;8.90;2.83;;;4.70;99.90;;;;;;5054056;28;20116;-72
2022/12/27 01:36:41;;;;;;;6.82;2.03;;;4.70;99.90;;;;;;5054068;28;20036;-71
2022/12/27 01:39:09;;;;;;;4.35;1.98;;;4.50;99.90;;;;;;5054055;28;20040;-71
2022/12/27 01:44:42;;;;;;;5.75;2.38;;;4.70;99.90;;;;;;5071919;28;20048;-71
2022/12/27 01:47:30;;;;;;;13.05;1.77;;;4.60;99.90;;;;;;5054014;28;20262;-72
2022/12/27 01:50:14;;;;;;;6.47;2.80;;;4.80;99.90;;;;;;5071871;28;20044;-71
2022/12/27 01:52:50;;;;;;;11.25;2.47;;;4.80;99.90;;;;;;5053747;28;20048;-72
2022/12/27 01:55:52;;;;;;;6.15;3.00;;;4.90;99.90;;;;;;5071955;28;20051;-72
2022/12/27 01:58:39;;;;;;;8.63;2.03;;;4.90;99.90;;;;;;5071692;28;20541;-72
2022/12/27 02:01:09;;;;;;;6.63;2.30;;;4.90;99.90;;;;;;5053840;28;20048;-71
2022/12/27 02:03:39;;;;;;;13.10;3.65;;;4.80;99.90;;;;;;5071564;28;20059;-71
2022/12/27 02:06:07;;;;;;;9.77;2.65;;;4.80;99.90;;;;;;5053717;28;20074;-72
2022/12/27 02:08:54;;;;;;;6.93;1.75;;;4.90;99.90;;;;;;5053587;28;20041;-72
2022/12/27 02:11:49;;;;;;;13.57;2.33;;;4.80;99.90;;;;;;5071874;28;20047;-72
2022/12/27 02:14:12;;;;;;;8.95;2.83;;;5.00;99.90;;;;;;5053417;28;20052;-72
2022/12/27 02:16:37;;;;;;;16.13;3.85;;;4.80;99.90;;;;;;5071688;28;20032;-71
2022/12/27 02:19:08;;;;;;;14.00;4.00;;;4.90;99.90;;;;;;5053726;28;20037;-72
2022/12/27 02:21:54;;;;;;;12.00;4.45;;;5.10;99.90;;;;;;5053710;28;20076;-72
2022/12/27 02:24:57;;;;;;;10.45;2.75;;;5.00;99.90;;;;;;5070719;28;20533;-71
2022/12/27 02:27:53;;;;;;;8.88;2.55;;;4.70;99.90;;;;;;5053638;28;20051;-72
2022/12/27 02:30:18;;;;;;;8.32;2.63;;;4.80;99.90;;;;;;5053806;28;20043;-72
2022/12/27 02:32:56;;;;;;;11.93;3.00;;;4.70;99.90;;;;;;5071328;28;20032;-72
2022/12/27 02:35:28;;;;;;;8.80;2.75;;;4.80;99.90;;;;;;5053513;28;20043;-71
2022/12/27 02:38:01;;;;;;;8.93;2.55;;;4.50;99.90;;;;;;5071906;28;20114;-71
2022/12/27 02:55:05;;;;;;;9.55;3.05;;;4.40;99.90;;;;;;5056965;28;20052;-72
2022/12/27 02:58:15;;;;;;;9.55;2.58;;;4.40;99.90;;;;;;5057157;28;20036;-71
2022/12/27 03:04:14;;;;;;;13.55;4.07;;;4.60;99.90;;;;;;5057039;28;20044;-72
2022/12/27 03:06:51;;;;;;;7.53;2.08;;;4.70;99.90;;;;;;5057121;28;20124;-72
2022/12/27 03:16:02;;;;;;;11.40;2.60;;;4.40;99.90;;;;;;5075295;28;20048;-71
2022/12/27 03:18:49;;;;;;;11.30;2.75;;;4.50;99.90;;;;;;5057174;28;20081;-72
2022/12/27 03:27:16;;;;;;;11.13;2.42;;;4.80;99.90;;;;;;5075358;28;20118;-71
2022/12/27 03:35:18;;;;;;;7.22;2.22;;;4.70;99.90;;;;;;5074496;28;20048;-72
2022/12/27 03:38:03;;;;;;;6.60;2.03;;;4.50;99.90;;;;;;5056624;28;20076;-72
2022/12/27 03:40:37;;;;;;;12.02;3.63;;;4.80;99.90;;;;;;5074324;28;20448;-72
2022/12/27 03:43:09;;;;;;;5.80;1.90;;;4.60;99.90;;;;;;5056099;28;20036;-72
2022/12/27 03:49:04;;;;;;;11.80;2.45;;;5.00;99.90;;;;;;5055583;28;20080;-72
2022/12/27 03:51:34;;;;;;;13.13;3.40;;;4.70;99.90;;;;;;5074121;28;20537;-72
2022/12/27 03:54:07;;;;;;;8.50;2.40;;;5.00;99.90;;;;;;5073827;28;20048;-72
2022/12/27 03:56:33;;;;;;;10.30;2.20;;;4.90;99.90;;;;;;5074199;28;20041;-72
2022/12/27 03:59:01;;;;;;;9.85;2.33;;;4.90;99.90;;;;;;5056377;28;20466;-71
2022/12/27 04:01:26;;;;;;;11.00;2.70;;;4.70;99.90;;;;;;5056286;28;20052;-71
2022/12/27 04:03:52;;;;;;;8.80;1.65;;;4.80;99.90;;;;;;5055726;28;20036;-72
2022/12/27 04:06:17;;;;;;;10.05;2.08;;;4.60;99.90;;;;;;5073970;28;20032;-71
2022/12/27 04:36:04;;;;;;;6.75;2.15;;;4.50;99.90;;;;;;5055378;28;20052;-72
2022/12/27 04:38:30;;;;;;;8.18;2.45;;;4.60;99.90;;;;;;5055020;28;20508;-72
2022/12/27 04:55:01;;;;;;;6.40;1.95;;;4.50;99.90;;;;;;5072996;28;20045;-72
2022/12/27 04:57:27;;;;;;;6.80;1.60;;;4.20;99.90;;;;;;5054973;28;20044;-72
2022/12/27 05:02:02;;;;;;;7.40;1.90;;;4.30;99.90;;;;;;5072568;28;20036;-72
2022/12/27 05:02:53;;;;;;;11.45;1.92;;;4.40;99.90;;;;;;5072365;28;20089;-72
2022/12/27 05:05:19;;;;;;;7.70;2.28;;;4.30;99.90;;;;;;5054915;28;20494;-72
2022/12/27 05:15:58;;;;;;;11.07;2.60;;;4.60;99.90;;;;;;5054563;28;20101;-72
2022/12/27 05:18:23;;;;;;;11.68;2.15;;;4.70;99.90;;;;;;5072452;28;20033;-72
2022/12/27 05:20:49;;;;;;;4.82;1.95;;;4.40;99.90;;;;;;5072672;28;20037;-72
2022/12/27 05:25:59;;;;;;;8.57;2.47;;;4.60;99.90;;;;;;5072303;28;20502;-73
2022/12/27 05:28:24;;;;;;;11.77;2.42;;;4.30;99.90;;;;;;5072402;28;20036;-72
2022/12/27 05:30:50;;;;;;;14.52;3.05;;;4.40;99.90;;;;;;5054542;28;20048;-72
2022/12/27 05:33:15;;;;;;;6.30;2.25;;;4.40;99.90;;;;;;5054071;28;20044;-72
2022/12/27 05:35:41;;;;;;;10.10;2.08;;;4.30;99.90;;;;;;5072142;28;20437;-72
2022/12/27 05:38:07;;;;;;;10.70;2.90;;;4.40;99.90;;;;;;5054196;28;20434;-73
2022/12/27 05:40:33;;;;;;;8.52;2.28;;;4.40;99.90;;;;;;5054248;28;20063;-73
2022/12/27 05:42:59;;;;;;;10.45;2.53;;;4.20;99.90;;;;;;5071864;28;20063;-73
2022/12/27 05:45:25;;;;;;;12.93;2.50;;;4.50;99.90;;;;;;5053942;28;20101;-72
2022/12/27 05:47:51;;;;;;;6.78;2.30;;;4.30;99.90;;;;;;5054027;28;20041;-72
2022/12/27 05:50:17;;;;;;;9.35;2.35;;;4.30;99.90;;;;;;5071865;28;20482;-72
2022/12/27 05:52:43;;;;;;;5.63;2.30;;;4.20;99.90;;;;;;5053934;28;20050;-72
2022/12/27 05:55:08;;;;;;;9.80;2.35;;;4.20;99.90;;;;;;5071864;28;20090;-72
2022/12/27 05:57:34;;;;;;;6.05;2.17;;;4.20;99.90;;;;;;5054099;28;20041;-72
2022/12/27 06:00:00;;;;;;;7.38;2.30;;;4.20;99.90;;;;;;5071714;28;20040;-72
2022/12/27 06:02:25;;;;;;;9.60;2.47;;;4.10;99.90;;;;;;5053543;28;20043;-72
2022/12/27 06:04:51;;;;;;;7.90;1.98;;;4.20;99.90;;;;;;5071866;28;20052;-72
2022/12/27 06:07:16;;;;;;;7.60;1.90;;;4.20;99.90;;;;;;5053894;28;20051;-72
2022/12/27 06:09:42;;;;;;;7.07;1.77;;;4.00;99.90;;;;;;5071732;28;20065;-72
2022/12/27 06:12:08;;;;;;;8.27;1.75;;;4.20;99.90;;;;;;5071571;28;20051;-72
2022/12/27 06:14:33;;;;;;;11.63;2.17;;;4.10;99.90;;;;;;5053260;28;20075;-72
2022/12/27 06:16:59;;;;;;;17.25;2.08;;;4.00;99.90;;;;;;5071895;28;20028;-73
2022/12/27 06:19:24;;;;;;;8.95;2.00;;;4.10;99.90;;;;;;5053276;28;20106;-72
2022/12/27 06:21:50;;;;;;;12.18;2.10;;;3.90;99.90;;;;;;5053896;28;20033;-72
2022/12/27 06:24:15;;;;;;;8.10;2.92;;;3.90;99.90;;;;;;5053314;28;20048;-72
2022/12/27 06:26:41;;;;;;;12.55;2.30;;;3.90;99.90;;;;;;5053605;28;20460;-72
2022/12/27 06:29:11;;;;;;;7.95;2.17;;;4.00;99.90;;;;;;5036667;28;20659;-72
2022/12/27 06:31:37;;;;;;;10.80;3.63;;;4.00;99.90;;;;;;5053839;28;20045;-72
2022/12/27 06:34:03;;;;;;;17.60;2.58;;;4.10;99.90;;;;;;5053130;28;20509;-72
2022/12/27 06:36:29;;;;;;;13.43;3.15;;;4.10;99.90;;;;;;5071570;28;20068;-72
2022/12/27 06:38:56;;;;;;;8.82;2.38;;;4.00;99.90;;;;;;5053598;28;20075;-72
2022/12/27 06:41:21;;;;;;;10.30;2.67;;;4.10;99.90;;;;;;5053677;28;20154;-72
2022/12/27 06:43:52;;;;;;;7.78;1.95;;;3.90;99.90;;;;;;5071085;28;20541;-72
2022/12/27 06:46:17;;;;;;;8.85;2.38;;;4.00;99.90;;;;;;5053656;28;20128;-72
2022/12/27 06:48:44;;;;;;;9.13;2.42;;;3.80;99.90;;;;;;5071351;28;20107;-73
2022/12/27 06:51:11;;;;;;;13.70;2.47;;;3.90;99.90;;;;;;5053292;28;20355;-76
2022/12/27 06:53:36;;;;;;;13.75;2.45;;;4.00;99.90;;;;;;5052518;28;20032;-75
2022/12/27 06:56:08;;;;;;;4.97;2.15;;;3.90;99.90;;;;;;5053225;28;20449;-75
2022/12/27 06:58:33;;;;;;;15.77;2.78;;;3.80;99.90;;;;;;5053304;28;20036;-76
2022/12/27 07:01:09;;;;;;;9.45;2.70;;;4.00;99.90;;;;;;5071345;28;20047;-75
2022/12/27 07:03:35;;;;;;;14.60;3.00;;;3.90;99.90;;;;;;5070792;28;20124;-75
2022/12/27 07:06:02;;;;;;;9.93;2.92;;;3.70;99.90;;;;;;5053045;28;20041;-75
2022/12/27 07:08:28;;;;;;;11.02;2.60;;;3.80;99.90;;;;;;5052985;28;20040;-75
2022/12/27 07:11:06;;;;;;;10.52;2.78;;;3.80;99.90;;;;;;5053026;28;20037;-75
2022/12/27 07:13:36;;;;;;;7.80;2.58;;;3.70;99.90;;;;;;5052773;28;20078;-75
2022/12/27 07:16:06;;;;;;;7.07;1.98;;;3.70;99.90;;;;;;5071006;28;20051;-75
2022/12/27 07:18:32;;;;;;;10.13;2.40;;;3.70;99.90;;;;;;5053126;28;20072;-75
2022/12/27 07:20:58;;;;;;;14.80;4.00;;;3.70;99.90;;;;;;5053267;28;20079;-76
2022/12/27 07:23:24;;;;;;;12.80;2.42;;;3.60;99.90;;;;;;5052638;28;20044;-75
2022/12/27 07:25:49;;;;;;;11.10;2.13;;;3.50;99.90;;;;;;5056668;28;20040;-75
2022/12/27 07:28:15;;;;;;;17.63;2.67;;;3.50;99.90;;;;;;5056670;28;20051;-75
2022/12/27 07:30:41;;;;;;;8.30;2.42;;;3.80;99.90;;;;;;5056933;28;20434;-75
2022/12/27 07:33:07;;;;;;;6.70;1.95;;;3.60;99.90;;;;;;5056181;28;20043;-75
2022/12/27 07:35:33;;;;;;;8.15;2.50;;;3.80;99.90;;;;;;5074400;28;20032;-75
2022/12/27 07:37:59;;;;;;;9.07;2.08;;;3.60;99.90;;;;;;5056215;28;20033;-75
2022/12/27 07:40:24;;;;;;;7.22;2.00;;;3.70;99.90;;;;;;5074552;28;20072;-74
2022/12/27 07:42:50;;;;;;;8.32;2.20;;;3.70;99.90;;;;;;5074037;28;20115;-74
2022/12/27 07:45:16;;;;;;;7.97;2.55;;;3.50;99.90;;;;;;5074265;28;20071;-75
2022/12/27 07:47:41;;;;;;;7.80;2.03;;;3.60;99.90;;;;;;5056039;28;20115;-74
2022/12/27 07:50:07;;;;;;;8.10;2.60;;;3.60;99.90;;;;;;5056196;28;20451;-75
2022/12/27 07:52:32;;;;;;;6.60;2.42;;;3.70;99.90;;;;;;5055895;28;20529;-74
2022/12/27 07:54:58;;;;;;;11.52;3.20;;;3.90;99.90;;;;;;5039637;28;20072;-74
2022/12/27 07:57:23;;;;;;;13.32;3.35;;;3.80;99.90;;;;;;5039423;28;20068;-74
2022/12/27 07:59:49;;;;;;;11.68;2.47;;;3.80;99.90;;;;;;5055791;28;20124;-74
2022/12/27 08:02:15;;;;;;;9.93;2.22;;;3.60;99.90;;;;;;5055548;28;20147;-74
2022/12/27 08:04:41;;;;;;;11.85;2.38;;;4.00;99.90;;;;;;5055666;28;20041;-74
2022/12/27 08:07:16;;;;;;;7.85;3.10;;;3.90;99.90;;;;;;5055657;28;20037;-74
2022/12/27 08:09:44;;;;;;;9.85;2.50;;;3.80;99.90;;;;;;5055732;28;20695;-74
2022/12/27 08:12:10;;;;;;;8.07;2.45;;;3.80;99.90;;;;;;5056009;28;20429;-74
2022/12/27 08:14:36;;;;;;;12.55;3.60;;;4.10;99.90;;;;;;5055313;28;20041;-75
2022/12/27 08:17:17;;;;;;;12.57;3.72;;;3.70;99.90;;;;;;5055567;28;20044;-74
2022/12/27 08:19:42;;;;;;;12.07;3.80;;;3.70;99.90;;;;;;5055417;28;20120;-74
2022/12/27 08:22:09;;;;;;;9.95;2.95;;;4.00;99.90;;;;;;5055482;28;20477;-74
2022/12/27 08:24:35;;;;;;;11.55;3.03;;;4.10;99.90;;;;;;5055170;28;20044;-76
2022/12/27 08:27:00;;;;;;;14.38;3.25;;;3.90;99.90;;;;;;5055620;28;20044;-75
2022/12/27 08:29:26;;;;;;;10.45;3.17;;;4.10;99.90;;;;;;5055452;28;20071;-75
2022/12/27 08:31:51;;;;;;;13.90;3.45;;;3.90;99.90;;;;;;5055407;28;20574;-76
2022/12/27 08:34:17;;;;;;;13.82;3.63;;;4.20;99.90;;;;;;5054939;28;20048;-77
2022/12/27 08:36:43;;;;;;;11.82;3.25;;;4.00;99.90;;;;;;5039013;28;20119;-76
2022/12/27 08:39:09;;;;;;;17.10;2.80;;;4.30;99.90;;;;;;5055452;28;20040;-76
2022/12/27 08:41:35;;;;;;;10.82;2.60;;;4.30;99.90;;;;;;5055243;28;20040;-75
2022/12/27 08:44:00;;;;;;;6.72;3.03;;;4.20;99.90;;;;;;5054880;28;20033;-75
2022/12/27 08:46:26;;;;;;;12.10;2.92;;;4.30;99.90;;;;;;5055099;28;20032;-75
2022/12/27 08:48:51;;;;;;;11.27;3.15;;;4.10;99.90;;;;;;5054888;28;20042;-75
2022/12/27 08:51:18;;;;;;;13.85;3.22;;;4.20;99.90;;;;;;5055097;28;20074;-75
2022/12/27 08:53:43;;;;;;;12.35;3.97;;;4.40;99.90;;;;;;5038136;28;20074;-75
2022/12/27 08:56:09;;;;;;;12.52;3.10;;;4.20;99.90;;;;;;5073100;28;20056;-74
2022/12/27 08:58:35;;;;;;;9.90;3.10;;;4.40;99.90;;;;;;5055130;28;20082;-74
2022/12/27 09:01:08;;;;;;;10.02;2.72;;;4.40;99.90;;;;;;5038169;28;20657;-75
2022/12/27 09:03:34;;;;;;;9.95;3.08;;;4.40;99.90;;;;;;5054676;28;20433;-76
2022/12/27 09:06:14;;;;;;;8.25;2.72;;;4.40;99.90;;;;;;5054663;28;20052;-76
2022/12/27 09:08:40;;;;;;;13.90;3.22;;;4.50;99.90;;;;;;5054549;28;20079;-75
2022/12/27 09:11:40;;;;;;;7.60;3.40;;;4.30;99.90;;;;;;5037995;28;20066;-76
2022/12/27 09:14:05;;;;;;;9.85;2.70;;;4.40;99.90;;;;;;5032887;28;20053;-75
2022/12/27 09:16:35;;;;;;;11.60;2.63;;;4.50;99.90;;;;;;5054486;28;20040;-73
2022/12/27 09:19:01;;;;;;;17.15;3.47;;;4.50;99.90;;;;;;5072327;28;20028;-74
2022/12/27 09:21:30;;;;;;;11.75;3.08;;;4.30;99.90;;;;;;5054391;28;20122;-74
2022/12/27 09:23:56;;;;;;;16.35;2.88;;;4.60;99.90;;;;;;5037506;28;20040;-74
2022/12/27 09:26:25;;;;;;;15.05;2.97;;;4.50;99.90;;;;;;5054191;28;20040;-74
2022/12/27 09:28:51;;;;;;;10.32;3.20;;;4.70;99.90;;;;;;5054073;28;20036;-74
2022/12/27 09:31:19;;;;;;;10.98;2.95;;;4.60;99.90;;;;;;5054255;28;20044;-74
2022/12/27 09:33:44;;;;;;;15.13;3.78;;;4.50;99.90;;;;;;5053834;28;20063;-74
2022/12/27 09:36:15;;;;;;;11.57;3.50;;;4.50;99.90;;;;;;5054075;28;20484;-74
2022/12/27 09:38:42;;;;;;;12.80;3.10;;;4.70;99.90;;;;;;5053743;28;20036;-74
2022/12/27 09:41:43;;;;;;;15.32;4.15;;;4.50;99.90;;;;;;5054313;28;20093;-74
2022/12/27 09:44:14;;;;;;;17.70;4.40;;;4.70;99.90;;;;;;5040278;28;20060;-74
2022/12/27 09:46:45;;;;;;;16.20;4.82;;;4.60;99.90;;;;;;5053620;28;20049;-74
2022/12/27 09:49:15;;;;;;;19.25;3.65;;;4.60;99.90;;;;;;5054110;28;20127;-77
2022/12/27 09:51:56;;;;;;;11.80;3.97;;;4.70;99.90;;;;;;5054082;28;20098;-76
2022/12/27 09:54:30;;;;;;;12.90;3.55;;;4.80;99.90;;;;;;5053698;28;20041;-74
2022/12/27 09:56:57;;;;;;;;;;;4.80;99.90;;;;;;5054299;28;20044;-74
2022/12/27 09:59:31;;;;;;;10.00;3.55;;;4.90;99.90;;;;;;5053770;28;20396;-74
2022/12/27 10:01:58;;;;;;;13.88;4.22;;;4.70;99.90;;;;;;5053949;28;20033;-74
2022/12/27 10:04:23;;;;;;;8.00;3.05;;;4.90;99.90;;;;;;5053825;28;20040;-74
2022/12/27 10:06:49;;;;;;;11.60;3.60;;;5.00;99.90;;;;;;5071599;28;20490;-74
2022/12/27 10:09:36;;;;;;;9.40;2.60;;;5.00;99.90;;;;;;5053782;28;20043;-74
2022/12/27 10:12:23;;;;;;;12.02;3.15;;;4.80;99.90;;;;;;5053462;28;20037;-73
2022/12/27 10:15:20;;;;;;;13.10;3.10;;;5.10;99.90;;;;;;5053341;28;20114;-73
2022/12/27 10:18:07;;;;;;;12.95;4.25;;;5.10;99.90;;;;;;5053488;28;20051;-74
2022/12/27 10:20:53;;;;;;;12.27;4.20;;;5.00;99.90;;;;;;5053241;28;20470;-74
2022/12/27 10:23:24;;;;;;;14.15;3.60;;;5.10;99.90;;;;;;5053114;28;20048;-74
2022/12/27 10:25:58;;;;;;;14.13;3.80;;;5.00;99.90;;;;;;5053380;28;20170;-75
2022/12/27 10:28:34;;;;;;;11.68;4.25;;;5.30;99.90;;;;;;5036592;28;20040;-75
2022/12/27 10:31:03;;;;;;;15.55;3.60;;;5.10;99.90;;;;;;5053375;28;20063;-75
2022/12/27 10:33:32;;;;;;;14.32;3.58;;;5.40;99.90;;;;;;5053192;28;20347;-75
2022/12/27 10:36:00;;;;;;;10.32;3.88;;;5.20;99.90;;;;;;5053063;28;20094;-75
2022/12/27 10:38:32;;;;;;;11.90;3.33;;;5.30;99.90;;;;;;5071032;28;20055;-76
2022/12/27 10:41:31;;;;;;;14.05;3.40;;;5.50;99.90;;;;;;5053357;28;20437;-75
2022/12/27 10:43:56;;;;;;;14.77;3.80;;;5.40;99.90;;;;;;5052981;28;20045;-75
2022/12/27 10:46:28;;;;;;;9.95;2.90;;;5.60;99.90;;;;;;5053098;28;20052;-74
2022/12/27 10:48:55;;;;;;;8.95;3.05;;;5.60;99.90;;;;;;5068786;28;20442;-76
2022/12/27 10:51:22;;;;;;;11.32;3.85;;;5.80;99.90;;;;;;5051625;28;20036;-76
2022/12/27 10:53:48;;;;;;;12.90;4.05;;;5.70;99.90;;;;;;5070391;28;20106;-74
2022/12/27 10:56:34;;;;;;;9.30;3.00;;;5.80;99.90;;;;;;5053219;28;20494;-76
2022/12/27 10:59:10;;;;;;;15.10;3.53;;;5.90;99.90;;;;;;5053152;28;20450;-75
2022/12/27 11:01:35;;;;;;;14.43;3.88;;;6.00;99.90;;;;;;5057239;28;20036;-76
2022/12/27 11:04:08;;;;;;;10.20;3.08;;;5.90;99.90;;;;;;5074727;28;20098;-76
2022/12/27 11:06:34;;;;;;;20.80;3.50;;;6.10;99.90;;;;;;5056776;28;20036;-76
2022/12/27 11:09:35;;;;;;;9.13;2.72;;;6.10;99.90;;;;;;5056892;28;20074;-76
2022/12/27 11:12:12;;;;;;;11.80;2.85;;;6.40;99.90;;;;;;5057002;28;20029;-76
2022/12/27 11:14:39;;;;;;;12.68;3.53;;;6.40;99.90;;;;;;5054698;28;20518;-74
2022/12/27 11:17:13;;;;;;;12.65;2.75;;;6.50;99.90;;;;;;5057802;28;20072;-74
2022/12/27 11:19:45;;;;;;;7.82;2.67;;;6.50;99.90;;;;;;5091154;28;20085;-74
2022/12/27 11:22:11;;;;;;;8.65;2.72;;;6.70;99.90;;;;;;5076510;28;20044;-74
2022/12/27 11:24:42;;;;;;;10.35;2.95;;;6.60;99.90;;;;;;5076582;28;20062;-73
2022/12/27 11:27:27;;;;;;;14.82;3.13;;;6.60;99.90;;;;;;5076655;28;20468;-73
2022/12/27 11:29:56;;;;;;;7.13;3.28;;;6.70;99.90;;;;;;5076470;28;20496;-76
2022/12/27 11:32:23;;;;;;;19.23;3.70;;;6.60;99.90;;;;;;5094371;28;20040;-73
2022/12/27 11:34:52;;;;;;;12.50;3.03;;;6.60;99.90;;;;;;5063777;28;20396;-73
2022/12/27 11:37:21;;;;;;;11.93;2.90;;;6.60;99.90;;;;;;5071302;28;20506;-74
2022/12/27 11:39:50;;;;;;;11.38;3.05;;;6.50;99.90;;;;;;5048749;28;20033;-73
2022/12/27 11:42:31;;;;;;;14.77;2.65;;;6.70;99.90;;;;;;5056342;28;20414;-73
2022/12/27 11:45:27;;;;;;;12.32;3.25;;;6.50;99.90;;;;;;5056862;28;20696;-73
2022/12/27 11:48:35;;;;;;;9.73;2.38;;;6.50;99.90;;;;;;5055908;28;20040;-73
2022/12/27 11:51:09;;;;;;;8.45;2.60;;;6.60;99.90;;;;;;5073807;28;20041;-73
2022/12/27 11:54:14;;;;;;;8.82;2.35;;;6.60;99.90;;;;;;5055676;28;20067;-73
2022/12/27 11:56:46;;;;;;;8.30;2.42;;;6.60;99.90;;;;;;5074249;28;20097;-73
2022/12/27 11:59:24;;;;;;;11.60;2.83;;;6.60;99.90;;;;;;5074154;28;20047;-73
2022/12/27 12:02:14;;;;;;;8.50;2.67;;;6.60;99.90;;;;;;5056258;28;20045;-73
2022/12/27 12:04:51;;;;;;;11.88;2.72;;;6.60;99.90;;;;;;5073486;28;20115;-73
2022/12/27 12:07:29;;;;;;;9.65;2.92;;;6.70;99.90;;;;;;5073698;28;20044;-73
2022/12/27 12:10:09;;;;;;;12.65;2.90;;;6.50;99.90;;;;;;5055434;28;20094;-73
2022/12/27 12:13:06;;;;;;;8.27;2.67;;;6.70;99.90;;;;;;5073736;28;20499;-75
2022/12/27 12:15:56;;;;;;;10.43;2.88;;;6.60;99.90;;;;;;5055734;28;20558;-74
2022/12/27 12:18:48;;;;;;;9.98;2.63;;;6.50;99.90;;;;;;5054621;28;20099;-75
2022/12/27 12:21:23;;;;;;;16.73;3.03;;;6.50;99.90;;;;;;5048534;28;20037;-75
2022/12/27 12:24:22;;;;;;;8.50;2.40;;;6.50;99.90;;;;;;5055173;28;20064;-75
2022/12/27 12:27:04;;;;;;;17.13;3.15;;;6.50;99.90;;;;;;5067969;28;20057;-74
2022/12/27 12:29:41;;;;;;;10.93;2.92;;;6.60;99.90;;;;;;5055042;28;20768;-74
2022/12/27 12:32:31;;;;;;;9.52;2.95;;;6.60;99.90;;;;;;5055357;28;20465;-74
2022/12/27 12:35:15;;;;;;;10.85;2.70;;;6.60;99.90;;;;;;5055035;28;20097;-73
2022/12/27 12:37:55;;;;;;;13.35;3.05;;;6.70;99.90;;;;;;5054937;28;20033;-74
2022/12/27 12:40:31;;;;;;;8.60;2.22;;;6.70;99.90;;;;;;5055155;28;20406;-73
2022/12/27 12:43:28;;;;;;;7.57;2.70;;;6.70;99.90;;;;;;5054970;28;20075;-73
2022/12/27 12:46:24;;;;;;;19.50;2.53;;;6.60;99.90;;;;;;5054876;28;20120;-73
2022/12/27 12:49:24;;;;;;;11.52;2.75;;;6.70;99.90;;;;;;5072980;28;20091;-73
2022/12/27 12:51:59;;;;;;;11.80;2.20;;;6.70;99.90;;;;;;5054773;28;20502;-74
2022/12/27 12:54:58;;;;;;;8.50;2.30;;;6.60;99.90;;;;;;5054367;28;20040;-74
2022/12/27 12:57:52;;;;;;;7.80;1.88;;;6.70;99.90;;;;;;5054718;28;20080;-75
2022/12/27 13:00:18;;;;;;;8.57;2.50;;;6.60;99.90;;;;;;5054847;28;20115;-74
2022/12/27 13:03:17;;;;;;;9.15;2.45;;;6.60;99.90;;;;;;5054795;28;20108;-74
2022/12/27 13:05:50;;;;;;;9.00;3.03;;;6.70;99.90;;;;;;5072874;28;20135;-74
2022/12/27 13:08:43;;;;;;;9.98;2.15;;;6.60;99.90;;;;;;5054457;28;20050;-74
2022/12/27 13:11:24;;;;;;;4.05;1.38;;;6.70;99.90;;;;;;5054449;28;20068;-75
2022/12/27 13:14:21;;;;;;;6.53;1.85;;;6.60;99.90;;;;;;5054084;28;20040;-75
2022/12/27 13:17:15;;;;;;;11.40;2.30;;;6.70;99.90;;;;;;5054237;28;20052;-74
2022/12/27 13:20:09;;;;;;;6.85;2.22;;;6.70;99.90;;;;;;5072096;28;20036;-75
2022/12/27 13:23:03;;;;;;;12.10;2.95;;;6.60;99.90;;;;;;5009069;28;20126;-75
2022/12/27 13:25:50;;;;;;;15.10;2.40;;;6.70;99.90;;;;;;5054140;28;20044;-75
2022/12/27 13:28:36;;;;;;;9.23;2.40;;;6.60;99.90;;;;;;5074942;28;20047;-74
2022/12/27 13:31:08;;;;;;;12.05;2.53;;;6.60;99.90;;;;;;5058506;28;20386;-74
2022/12/27 13:34:01;;;;;;;8.02;2.58;;;6.70;99.90;;;;;;5078965;28;20417;-75
2022/12/27 13:36:43;;;;;;;14.15;2.85;;;6.60;99.90;;;;;;5032338;28;20186;-74
2022/12/27 13:39:32;;;;;;;8.13;2.50;;;6.50;99.90;;;;;;5047139;28;20044;-74
2022/12/27 13:42:22;;;;;;;11.20;2.70;;;6.50;99.90;;;;;;5053829;28;20123;-74
2022/12/27 13:45:02;;;;;;;17.83;2.97;;;6.50;99.90;;;;;;5053631;28;20094;-74
2022/12/27 13:47:56;;;;;;;9.23;2.40;;;6.40;99.90;;;;;;5053985;28;20378;-74
2022/12/27 13:50:39;;;;;;;13.93;3.10;;;6.50;99.90;;;;;;5071514;28;20040;-74
2022/12/27 13:53:23;;;;;;;13.18;3.25;;;6.50;99.90;;;;;;5036773;28;20398;-72
2022/12/27 13:56:09;;;;;;;12.30;3.47;;;6.50;99.90;;;;;;5053325;28;20580;-76
2022/12/27 13:58:50;;;;;;;12.32;3.50;;;6.40;99.90;;;;;;5053398;28;20482;-77
2022/12/27 14:01:28;;;;;;;8.52;3.40;;;6.30;99.90;;;;;;5053531;28;20068;-76
2022/12/27 14:04:06;;;;;;;11.63;3.25;;;6.20;99.90;;;;;;5036661;28;20110;-76
2022/12/27 14:06:51;;;;;;;13.30;3.38;;;6.20;99.90;;;;;;5036836;28;20044;-77
2022/12/27 14:09:29;;;;;;;11.32;3.55;;;6.20;99.90;;;;;;5071281;28;20486;-77
2022/12/27 14:12:34;;;;;;;8.35;3.45;;;6.10;99.90;;;;;;5036853;28;20054;-78
2022/12/27 14:15:04;;;;;;;9.55;3.40;;;6.20;99.90;;;;;;5053357;28;20041;-77
2022/12/27 14:17:47;;;;;;;6.72;3.00;;;6.20;99.90;;;;;;5053124;28;20502;-78
2022/12/27 14:20:28;;;;;;;11.80;4.25;;;6.20;99.90;;;;;;5053308;28;20048;-77
2022/12/27 14:23:22;;;;;;;9.32;3.88;;;6.10;99.90;;;;;;5053219;28;20052;-77
2022/12/27 14:26:04;;;;;;;11.85;3.90;;;6.10;99.90;;;;;;5053700;28;20049;-77
2022/12/27 14:29:05;;;;;;;17.27;4.47;;;6.00;99.90;;;;;;5071105;28;20494;-77
2022/12/27 14:31:50;;;;;;;11.90;3.67;;;6.20;99.90;;;;;;5037111;28;20040;-77
2022/12/27 14:34:38;;;;;;;17.25;4.70;;;6.10;99.90;;;;;;5052735;28;20474;-77
2022/12/27 14:37:22;;;;;;;19.20;3.95;;;6.10;99.90;;;;;;5036607;28;20123;-77
2022/12/27 14:40:15;;;;;;;14.15;5.03;;;6.10;99.90;;;;;;5071008;28;20044;-77
2022/12/27 14:42:59;;;;;;;7.30;4.25;;;6.30;99.90;;;;;;5036166;28;20123;-77
2022/12/27 14:45:56;;;;;;;13.63;4.72;;;6.20;99.90;;;;;;5053014;28;20094;-77
2022/12/27 14:48:48;;;;;;;14.90;5.40;;;6.20;99.90;;;;;;5052992;28;20048;-77
2022/12/27 14:51:51;;;;;;;13.98;6.28;;;6.20;99.90;;;;;;5052965;28;20508;-77
2022/12/27 14:54:48;;;;;;;11.98;6.40;;;6.20;99.90;;;;;;5070743;28;20075;-77
2022/12/27 14:57:34;;;;;;;11.80;5.82;;;6.10;99.90;;;;;;5052910;28;20072;-77
2022/12/27 15:00:21;;;;;;;15.63;6.75;;;6.20;99.90;;;;;;5071034;28;20083;-77